首页
METAR-TAF:

METAR-TAF

机场 :

Tupelo Regional Airport (C.D. Lemons Field)

图珀洛, 密西西比州, 美国

纬度: 34-16-05N, 经度: 088-46-12W, 海拔: 106米

当前天气观测

该预报发布于51分钟前的09:53 UTC
静风
温度 8°C
湿度 76%
气压 1019 hPa
能見度: 16.1公里
天空无云

METAR: KTUP 020953Z AUTO 00000KT 10SM CLR 08/04 A3009 RMK AO2 SLP188 T00780039

时间: 05:44 (10:44 UTC)

预报

该预报发布于5小时和24分钟前的05:20 UTC
预报有效从02日的 06点(UTC)到 03日的 06点(UTC)
风速3节,风向
能見度: 10公里
少量云层高于25000英尺
从 02日的 1500点(UTC)
风速6节,风向东转东南
能見度: 10公里
少量云层高于25000英尺
从 02日的 1800点(UTC)
风速4节,风向南转南东
能見度: 10公里
少量云层高于25000英尺

TAF: KTUP 020520Z 0206/0306 35003KT P6SM FEW250 FM021500 12006KT P6SM FEW250 FM021800 16004KT P6SM FEW250

超过4000个机场的气象观测和天气预报(METAR&TAF报告)。

可查询的气象台以黄色和红色小点在地图上表示。

将鼠标移到小点上方,可查看气象台名称。

然后点击查看天气观测和预报。

如需切换地图:点击带黑十字的绿色按钮放大地图;点击带横线的绿色按钮缩小地图;或者点击绿色箭头查看邻近地区的地图。


METAR-TAF: